sensor_id;sensor_type;location;lat;lon;timestamp;P1;durP1;ratioP1;P2;durP2;ratioP2
64609;SDS011;51019;46.090;6.350;2023-05-21T00:01:47;18.23;;;10.18;;
64609;SDS011;51019;46.090;6.350;2023-05-21T00:04:14;22.02;;;10.15;;
64609;SDS011;51019;46.090;6.350;2023-05-21T00:06:42;17.98;;;9.57;;
64609;SDS011;51019;46.090;6.350;2023-05-21T00:09:12;18.20;;;9.88;;
64609;SDS011;51019;46.090;6.350;2023-05-21T00:11:39;18.73;;;10.27;;
64609;SDS011;51019;46.090;6.350;2023-05-21T00:14:06;19.05;;;10.50;;
64609;SDS011;51019;46.090;6.350;2023-05-21T00:16:36;20.00;;;10.70;;
64609;SDS011;51019;46.090;6.350;2023-05-21T00:19:03;19.45;;;10.13;;
64609;SDS011;51019;46.090;6.350;2023-05-21T00:21:31;22.25;;;9.57;;
64609;SDS011;51019;46.090;6.350;2023-05-21T00:23:58;17.95;;;9.75;;
64609;SDS011;51019;46.090;6.350;2023-05-21T00:26:27;19.67;;;9.75;;
64609;SDS011;51019;46.090;6.350;2023-05-21T00:28:54;17.08;;;8.90;;
64609;SDS011;51019;46.090;6.350;2023-05-21T00:31:22;17.85;;;9.45;;
64609;SDS011;51019;46.090;6.350;2023-05-21T00:33:49;18.63;;;10.55;;
64609;SDS011;51019;46.090;6.350;2023-05-21T00:36:16;19.58;;;10.60;;
64609;SDS011;51019;46.090;6.350;2023-05-21T00:38:47;19.38;;;10.63;;
64609;SDS011;51019;46.090;6.350;2023-05-21T00:41:16;19.90;;;10.30;;
64609;SDS011;51019;46.090;6.350;2023-05-21T00:43:45;20.25;;;10.18;;
64609;SDS011;51019;46.090;6.350;2023-05-21T00:46:13;19.80;;;10.05;;
64609;SDS011;51019;46.090;6.350;2023-05-21T00:48:43;21.00;;;10.48;;
64609;SDS011;51019;46.090;6.350;2023-05-21T00:51:11;18.45;;;10.05;;
64609;SDS011;51019;46.090;6.350;2023-05-21T00:53:39;21.35;;;10.43;;
64609;SDS011;51019;46.090;6.350;2023-05-21T00:56:07;19.23;;;10.18;;
64609;SDS011;51019;46.090;6.350;2023-05-21T00:58:36;19.67;;;9.48;;
64609;SDS011;51019;46.090;6.350;2023-05-21T01:01:07;17.85;;;9.20;;
64609;SDS011;51019;46.090;6.350;2023-05-21T01:03:37;20.20;;;10.00;;
64609;SDS011;51019;46.090;6.350;2023-05-21T01:06:05;21.40;;;10.57;;
64609;SDS011;51019;46.090;6.350;2023-05-21T01:08:34;21.33;;;10.30;;
64609;SDS011;51019;46.090;6.350;2023-05-21T01:11:01;20.13;;;10.05;;
64609;SDS011;51019;46.090;6.350;2023-05-21T01:13:31;18.85;;;10.25;;
64609;SDS011;51019;46.090;6.350;2023-05-21T01:16:02;20.65;;;10.30;;
64609;SDS011;51019;46.090;6.350;2023-05-21T01:18:34;17.40;;;9.25;;
64609;SDS011;51019;46.090;6.350;2023-05-21T01:21:03;21.42;;;10.43;;
64609;SDS011;51019;46.090;6.350;2023-05-21T01:23:33;19.05;;;10.48;;
64609;SDS011;51019;46.090;6.350;2023-05-21T01:26:00;17.95;;;9.45;;
64609;SDS011;51019;46.090;6.350;2023-05-21T01:28:28;19.52;;;9.98;;
64609;SDS011;51019;46.090;6.350;2023-05-21T01:30:58;18.80;;;10.00;;
64609;SDS011;51019;46.090;6.350;2023-05-21T01:33:34;21.70;;;10.02;;
64609;SDS011;51019;46.090;6.350;2023-05-21T01:36:08;19.92;;;10.45;;
64609;SDS011;51019;46.090;6.350;2023-05-21T01:38:45;20.25;;;10.80;;
64609;SDS011;51019;46.090;6.350;2023-05-21T01:41:21;19.10;;;10.07;;
64609;SDS011;51019;46.090;6.350;2023-05-21T01:43:52;18.77;;;9.82;;
64609;SDS011;51019;46.090;6.350;2023-05-21T01:46:22;19.38;;;10.38;;
64609;SDS011;51019;46.090;6.350;2023-05-21T01:48:53;19.52;;;9.63;;
64609;SDS011;51019;46.090;6.350;2023-05-21T01:51:22;21.33;;;10.38;;
64609;SDS011;51019;46.090;6.350;2023-05-21T01:53:52;21.92;;;10.60;;
64609;SDS011;51019;46.090;6.350;2023-05-21T01:56:19;19.65;;;10.18;;
64609;SDS011;51019;46.090;6.350;2023-05-21T01:58:49;19.23;;;9.98;;
64609;SDS011;51019;46.090;6.350;2023-05-21T02:01:17;18.50;;;9.55;;
64609;SDS011;51019;46.090;6.350;2023-05-21T02:03:44;21.52;;;10.57;;
64609;SDS011;51019;46.090;6.350;2023-05-21T02:06:12;19.65;;;11.05;;
64609;SDS011;51019;46.090;6.350;2023-05-21T02:08:39;18.92;;;9.85;;
64609;SDS011;51019;46.090;6.350;2023-05-21T02:11:08;21.80;;;9.48;;
64609;SDS011;51019;46.090;6.350;2023-05-21T02:13:35;18.75;;;9.98;;
64609;SDS011;51019;46.090;6.350;2023-05-21T02:16:06;19.60;;;9.60;;
64609;SDS011;51019;46.090;6.350;2023-05-21T02:18:35;19.00;;;9.90;;
64609;SDS011;51019;46.090;6.350;2023-05-21T02:21:03;19.08;;;9.98;;
64609;SDS011;51019;46.090;6.350;2023-05-21T02:23:31;19.20;;;9.20;;
64609;SDS011;51019;46.090;6.350;2023-05-21T02:25:59;21.98;;;11.13;;
64609;SDS011;51019;46.090;6.350;2023-05-21T02:28:28;19.33;;;10.15;;
64609;SDS011;51019;46.090;6.350;2023-05-21T02:30:56;18.75;;;10.73;;
64609;SDS011;51019;46.090;6.350;2023-05-21T02:33:24;19.05;;;10.52;;
64609;SDS011;51019;46.090;6.350;2023-05-21T02:35:51;21.73;;;11.20;;
64609;SDS011;51019;46.090;6.350;2023-05-21T02:38:18;20.63;;;9.93;;
64609;SDS011;51019;46.090;6.350;2023-05-21T02:40:47;19.33;;;10.60;;
64609;SDS011;51019;46.090;6.350;2023-05-21T02:43:15;21.48;;;11.50;;
64609;SDS011;51019;46.090;6.350;2023-05-21T02:45:45;19.83;;;10.50;;
64609;SDS011;51019;46.090;6.350;2023-05-21T02:48:12;20.80;;;11.25;;
64609;SDS011;51019;46.090;6.350;2023-05-21T02:50:39;21.52;;;11.52;;
64609;SDS011;51019;46.090;6.350;2023-05-21T02:53:06;20.08;;;10.55;;
64609;SDS011;51019;46.090;6.350;2023-05-21T02:55:34;21.67;;;11.30;;
64609;SDS011;51019;46.090;6.350;2023-05-21T02:58:01;21.05;;;11.55;;
64609;SDS011;51019;46.090;6.350;2023-05-21T03:00:30;21.65;;;10.85;;
64609;SDS011;51019;46.090;6.350;2023-05-21T03:02:58;19.38;;;10.38;;
64609;SDS011;51019;46.090;6.350;2023-05-21T03:05:26;22.60;;;11.27;;
64609;SDS011;51019;46.090;6.350;2023-05-21T03:07:53;19.73;;;10.15;;
64609;SDS011;51019;46.090;6.350;2023-05-21T03:10:20;21.70;;;10.95;;
64609;SDS011;51019;46.090;6.350;2023-05-21T03:12:47;19.30;;;9.63;;
64609;SDS011;51019;46.090;6.350;2023-05-21T03:15:15;19.70;;;10.02;;
64609;SDS011;51019;46.090;6.350;2023-05-21T03:17:47;21.85;;;10.98;;
64609;SDS011;51019;46.090;6.350;2023-05-21T03:20:17;20.85;;;10.60;;
64609;SDS011;51019;46.090;6.350;2023-05-21T03:22:46;21.42;;;11.18;;
64609;SDS011;51019;46.090;6.350;2023-05-21T03:25:13;20.42;;;11.80;;
64609;SDS011;51019;46.090;6.350;2023-05-21T03:27:42;18.88;;;10.00;;
64609;SDS011;51019;46.090;6.350;2023-05-21T03:30:10;21.58;;;10.75;;
64609;SDS011;51019;46.090;6.350;2023-05-21T03:32:38;20.20;;;10.93;;
64609;SDS011;51019;46.090;6.350;2023-05-21T03:35:09;21.90;;;11.05;;
64609;SDS011;51019;46.090;6.350;2023-05-21T03:37:37;20.70;;;10.45;;
64609;SDS011;51019;46.090;6.350;2023-05-21T03:40:05;22.20;;;10.93;;
64609;SDS011;51019;46.090;6.350;2023-05-21T03:42:34;19.05;;;10.23;;
64609;SDS011;51019;46.090;6.350;2023-05-21T03:45:01;18.63;;;10.00;;
64609;SDS011;51019;46.090;6.350;2023-05-21T03:47:29;20.83;;;10.40;;
64609;SDS011;51019;46.090;6.350;2023-05-21T03:49:56;21.13;;;11.27;;
64609;SDS011;51019;46.090;6.350;2023-05-21T03:52:24;22.98;;;11.02;;
64609;SDS011;51019;46.090;6.350;2023-05-21T03:54:53;20.05;;;10.55;;
64609;SDS011;51019;46.090;6.350;2023-05-21T03:57:20;19.58;;;10.05;;
64609;SDS011;51019;46.090;6.350;2023-05-21T03:59:47;22.30;;;10.27;;
64609;SDS011;51019;46.090;6.350;2023-05-21T04:02:15;20.95;;;11.00;;
64609;SDS011;51019;46.090;6.350;2023-05-21T04:04:42;21.90;;;11.18;;
64609;SDS011;51019;46.090;6.350;2023-05-21T04:07:10;21.48;;;11.18;;
64609;SDS011;51019;46.090;6.350;2023-05-21T04:09:39;21.65;;;10.68;;
64609;SDS011;51019;46.090;6.350;2023-05-21T04:12:08;22.58;;;11.15;;
64609;SDS011;51019;46.090;6.350;2023-05-21T04:14:36;19.63;;;10.52;;
64609;SDS011;51019;46.090;6.350;2023-05-21T04:17:03;19.00;;;10.68;;
64609;SDS011;51019;46.090;6.350;2023-05-21T04:19:31;21.10;;;10.63;;
64609;SDS011;51019;46.090;6.350;2023-05-21T04:21:58;19.63;;;10.15;;
64609;SDS011;51019;46.090;6.350;2023-05-21T04:24:27;21.40;;;11.18;;
64609;SDS011;51019;46.090;6.350;2023-05-21T04:26:54;22.15;;;11.90;;
64609;SDS011;51019;46.090;6.350;2023-05-21T04:29:27;20.25;;;11.07;;
64609;SDS011;51019;46.090;6.350;2023-05-21T04:31:54;20.15;;;10.93;;
64609;SDS011;51019;46.090;6.350;2023-05-21T04:34:21;22.35;;;11.43;;
64609;SDS011;51019;46.090;6.350;2023-05-21T04:36:49;23.00;;;12.20;;
64609;SDS011;51019;46.090;6.350;2023-05-21T04:39:18;22.88;;;11.80;;
64609;SDS011;51019;46.090;6.350;2023-05-21T04:41:45;21.42;;;11.05;;
64609;SDS011;51019;46.090;6.350;2023-05-21T04:44:14;21.17;;;11.93;;
64609;SDS011;51019;46.090;6.350;2023-05-21T04:46:44;21.40;;;11.70;;
64609;SDS011;51019;46.090;6.350;2023-05-21T04:49:12;18.98;;;10.77;;
64609;SDS011;51019;46.090;6.350;2023-05-21T04:51:40;21.17;;;10.85;;
64609;SDS011;51019;46.090;6.350;2023-05-21T04:54:07;21.83;;;11.38;;
64609;SDS011;51019;46.090;6.350;2023-05-21T04:56:35;21.25;;;11.05;;
64609;SDS011;51019;46.090;6.350;2023-05-21T04:59:02;21.23;;;10.85;;
64609;SDS011;51019;46.090;6.350;2023-05-21T05:01:30;22.25;;;11.27;;
64609;SDS011;51019;46.090;6.350;2023-05-21T05:04:01;21.13;;;11.68;;
64609;SDS011;51019;46.090;6.350;2023-05-21T05:06:28;20.30;;;11.55;;
64609;SDS011;51019;46.090;6.350;2023-05-21T05:08:55;26.23;;;12.95;;
64609;SDS011;51019;46.090;6.350;2023-05-21T05:11:23;23.30;;;12.52;;
64609;SDS011;51019;46.090;6.350;2023-05-21T05:13:50;21.40;;;11.75;;
64609;SDS011;51019;46.090;6.350;2023-05-21T05:16:18;23.55;;;11.35;;
64609;SDS011;51019;46.090;6.350;2023-05-21T05:18:49;21.98;;;11.65;;
64609;SDS011;51019;46.090;6.350;2023-05-21T05:21:20;21.83;;;11.23;;
64609;SDS011;51019;46.090;6.350;2023-05-21T05:23:48;22.48;;;11.63;;
64609;SDS011;51019;46.090;6.350;2023-05-21T05:26:15;23.10;;;11.32;;
64609;SDS011;51019;46.090;6.350;2023-05-21T05:28:43;21.40;;;11.93;;
64609;SDS011;51019;46.090;6.350;2023-05-21T05:31:10;20.20;;;11.20;;
64609;SDS011;51019;46.090;6.350;2023-05-21T05:33:38;20.73;;;11.75;;
64609;SDS011;51019;46.090;6.350;2023-05-21T05:36:06;21.27;;;11.38;;
64609;SDS011;51019;46.090;6.350;2023-05-21T05:38:36;23.30;;;12.50;;
64609;SDS011;51019;46.090;6.350;2023-05-21T05:41:04;21.77;;;12.27;;
64609;SDS011;51019;46.090;6.350;2023-05-21T05:43:31;21.95;;;12.65;;
64609;SDS011;51019;46.090;6.350;2023-05-21T05:45:58;22.35;;;12.35;;
64609;SDS011;51019;46.090;6.350;2023-05-21T05:48:26;25.25;;;13.15;;
64609;SDS011;51019;46.090;6.350;2023-05-21T05:50:53;22.90;;;11.82;;
64609;SDS011;51019;46.090;6.350;2023-05-21T05:53:21;23.58;;;12.07;;
64609;SDS011;51019;46.090;6.350;2023-05-21T05:55:52;22.23;;;12.10;;
64609;SDS011;51019;46.090;6.350;2023-05-21T05:58:19;21.67;;;11.77;;
64609;SDS011;51019;46.090;6.350;2023-05-21T06:00:46;19.67;;;11.02;;
64609;SDS011;51019;46.090;6.350;2023-05-21T06:03:14;21.80;;;11.77;;
64609;SDS011;51019;46.090;6.350;2023-05-21T06:05:42;19.60;;;11.23;;
64609;SDS011;51019;46.090;6.350;2023-05-21T06:08:09;23.63;;;11.85;;
64609;SDS011;51019;46.090;6.350;2023-05-21T06:10:36;22.67;;;11.63;;
64609;SDS011;51019;46.090;6.350;2023-05-21T06:13:05;21.25;;;11.68;;
64609;SDS011;51019;46.090;6.350;2023-05-21T06:15:33;21.60;;;12.23;;
64609;SDS011;51019;46.090;6.350;2023-05-21T06:18:00;22.73;;;11.93;;
64609;SDS011;51019;46.090;6.350;2023-05-21T06:20:29;20.67;;;11.10;;
64609;SDS011;51019;46.090;6.350;2023-05-21T06:22:56;21.08;;;11.40;;
64609;SDS011;51019;46.090;6.350;2023-05-21T06:25:23;22.13;;;11.70;;
64609;SDS011;51019;46.090;6.350;2023-05-21T06:27:51;21.90;;;11.68;;
64609;SDS011;51019;46.090;6.350;2023-05-21T06:30:21;21.02;;;11.85;;
64609;SDS011;51019;46.090;6.350;2023-05-21T06:32:48;20.63;;;11.93;;
64609;SDS011;51019;46.090;6.350;2023-05-21T06:35:15;21.98;;;12.45;;
64609;SDS011;51019;46.090;6.350;2023-05-21T06:37:43;21.67;;;12.25;;
64609;SDS011;51019;46.090;6.350;2023-05-21T06:40:10;21.65;;;12.32;;
64609;SDS011;51019;46.090;6.350;2023-05-21T06:42:38;21.58;;;12.55;;
64609;SDS011;51019;46.090;6.350;2023-05-21T06:45:06;19.92;;;10.73;;
64609;SDS011;51019;46.090;6.350;2023-05-21T06:47:36;20.77;;;11.25;;
64609;SDS011;51019;46.090;6.350;2023-05-21T06:50:03;19.13;;;10.75;;
64609;SDS011;51019;46.090;6.350;2023-05-21T06:52:31;19.05;;;10.48;;
64609;SDS011;51019;46.090;6.350;2023-05-21T06:54:58;21.88;;;11.05;;
64609;SDS011;51019;46.090;6.350;2023-05-21T06:57:27;18.80;;;10.10;;
64609;SDS011;51019;46.090;6.350;2023-05-21T06:59:55;20.05;;;10.15;;
64609;SDS011;51019;46.090;6.350;2023-05-21T07:02:23;20.10;;;9.20;;
64609;SDS011;51019;46.090;6.350;2023-05-21T07:04:52;16.33;;;8.30;;
64609;SDS011;51019;46.090;6.350;2023-05-21T07:07:19;18.73;;;9.90;;
64609;SDS011;51019;46.090;6.350;2023-05-21T07:09:47;18.20;;;8.90;;
64609;SDS011;51019;46.090;6.350;2023-05-21T07:12:14;20.52;;;8.60;;
64609;SDS011;51019;46.090;6.350;2023-05-21T07:14:41;17.63;;;9.02;;
64609;SDS011;51019;46.090;6.350;2023-05-21T07:17:08;18.83;;;9.25;;
64609;SDS011;51019;46.090;6.350;2023-05-21T07:19:36;16.60;;;8.20;;
64609;SDS011;51019;46.090;6.350;2023-05-21T07:22:05;17.50;;;8.98;;
64609;SDS011;51019;46.090;6.350;2023-05-21T07:24:33;16.92;;;7.53;;
64609;SDS011;51019;46.090;6.350;2023-05-21T07:27:00;15.63;;;8.35;;
64609;SDS011;51019;46.090;6.350;2023-05-21T07:29:28;17.42;;;8.18;;
64609;SDS011;51019;46.090;6.350;2023-05-21T07:31:56;14.77;;;7.78;;
64609;SDS011;51019;46.090;6.350;2023-05-21T07:34:24;17.00;;;8.98;;
64609;SDS011;51019;46.090;6.350;2023-05-21T07:36:52;16.23;;;7.80;;
64609;SDS011;51019;46.090;6.350;2023-05-21T07:39:21;16.48;;;8.05;;
64609;SDS011;51019;46.090;6.350;2023-05-21T07:41:50;15.23;;;7.43;;
64609;SDS011;51019;46.090;6.350;2023-05-21T07:44:18;15.90;;;7.70;;
64609;SDS011;51019;46.090;6.350;2023-05-21T07:46:45;14.13;;;6.97;;
64609;SDS011;51019;46.090;6.350;2023-05-21T07:49:13;17.05;;;8.32;;
64609;SDS011;51019;46.090;6.350;2023-05-21T07:51:41;17.02;;;7.72;;
64609;SDS011;51019;46.090;6.350;2023-05-21T07:54:09;16.38;;;8.27;;
64609;SDS011;51019;46.090;6.350;2023-05-21T07:56:40;15.65;;;6.72;;
64609;SDS011;51019;46.090;6.350;2023-05-21T07:59:07;17.23;;;7.82;;
64609;SDS011;51019;46.090;6.350;2023-05-21T08:01:35;16.75;;;7.72;;
64609;SDS011;51019;46.090;6.350;2023-05-21T08:04:03;16.60;;;7.70;;
64609;SDS011;51019;46.090;6.350;2023-05-21T08:06:31;18.25;;;8.23;;
64609;SDS011;51019;46.090;6.350;2023-05-21T08:09:01;14.40;;;7.10;;
64609;SDS011;51019;46.090;6.350;2023-05-21T08:11:30;14.90;;;7.45;;
64609;SDS011;51019;46.090;6.350;2023-05-21T08:13:59;15.30;;;7.20;;
64609;SDS011;51019;46.090;6.350;2023-05-21T08:16:26;15.40;;;7.57;;
64609;SDS011;51019;46.090;6.350;2023-05-21T08:18:56;15.02;;;7.28;;
64609;SDS011;51019;46.090;6.350;2023-05-21T08:21:24;14.43;;;7.00;;
64609;SDS011;51019;46.090;6.350;2023-05-21T08:23:53;15.90;;;6.50;;
64609;SDS011;51019;46.090;6.350;2023-05-21T08:26:24;14.35;;;7.07;;
64609;SDS011;51019;46.090;6.350;2023-05-21T08:28:53;15.10;;;6.90;;
64609;SDS011;51019;46.090;6.350;2023-05-21T08:31:26;16.23;;;7.45;;
64609;SDS011;51019;46.090;6.350;2023-05-21T08:33:55;15.18;;;7.47;;
64609;SDS011;51019;46.090;6.350;2023-05-21T08:36:23;15.13;;;6.85;;
64609;SDS011;51019;46.090;6.350;2023-05-21T08:38:51;15.60;;;7.47;;
64609;SDS011;51019;46.090;6.350;2023-05-21T08:41:19;15.55;;;7.00;;
64609;SDS011;51019;46.090;6.350;2023-05-21T08:43:50;16.40;;;7.57;;
64609;SDS011;51019;46.090;6.350;2023-05-21T08:46:22;15.35;;;7.57;;
64609;SDS011;51019;46.090;6.350;2023-05-21T08:48:52;15.38;;;7.28;;
64609;SDS011;51019;46.090;6.350;2023-05-21T08:51:22;14.88;;;7.15;;
64609;SDS011;51019;46.090;6.350;2023-05-21T08:53:53;16.55;;;7.72;;
64609;SDS011;51019;46.090;6.350;2023-05-21T08:56:23;16.75;;;7.43;;
64609;SDS011;51019;46.090;6.350;2023-05-21T08:58:51;15.48;;;7.25;;
64609;SDS011;51019;46.090;6.350;2023-05-21T09:01:22;15.45;;;7.28;;
64609;SDS011;51019;46.090;6.350;2023-05-21T09:03:55;15.32;;;7.13;;
64609;SDS011;51019;46.090;6.350;2023-05-21T09:06:27;16.17;;;7.82;;
64609;SDS011;51019;46.090;6.350;2023-05-21T09:09:01;16.30;;;7.68;;
64609;SDS011;51019;46.090;6.350;2023-05-21T09:11:37;17.00;;;8.13;;
64609;SDS011;51019;46.090;6.350;2023-05-21T09:14:10;17.63;;;8.45;;
64609;SDS011;51019;46.090;6.350;2023-05-21T09:16:44;17.83;;;8.45;;
64609;SDS011;51019;46.090;6.350;2023-05-21T09:19:16;17.20;;;8.90;;
64609;SDS011;51019;46.090;6.350;2023-05-21T09:21:46;17.48;;;8.13;;
64609;SDS011;51019;46.090;6.350;2023-05-21T09:24:13;17.58;;;8.18;;
64609;SDS011;51019;46.090;6.350;2023-05-21T09:26:41;18.35;;;7.78;;
64609;SDS011;51019;46.090;6.350;2023-05-21T09:29:09;16.77;;;8.38;;
64609;SDS011;51019;46.090;6.350;2023-05-21T09:31:41;16.17;;;7.82;;
64609;SDS011;51019;46.090;6.350;2023-05-21T09:34:11;16.30;;;8.35;;
64609;SDS011;51019;46.090;6.350;2023-05-21T09:39:14;18.08;;;8.98;;
64609;SDS011;51019;46.090;6.350;2023-05-21T09:41:55;17.42;;;8.73;;
64609;SDS011;51019;46.090;6.350;2023-05-21T09:44:24;16.50;;;8.40;;
64609;SDS011;51019;46.090;6.350;2023-05-21T09:46:55;16.77;;;8.35;;
64609;SDS011;51019;46.090;6.350;2023-05-21T09:49:26;16.02;;;8.57;;
64609;SDS011;51019;46.090;6.350;2023-05-21T09:51:57;16.85;;;8.70;;
64609;SDS011;51019;46.090;6.350;2023-05-21T09:54:25;16.65;;;8.35;;
64609;SDS011;51019;46.090;6.350;2023-05-21T09:56:59;16.42;;;9.10;;
64609;SDS011;51019;46.090;6.350;2023-05-21T09:59:37;17.77;;;9.07;;
64609;SDS011;51019;46.090;6.350;2023-05-21T10:02:15;16.67;;;8.57;;
64609;SDS011;51019;46.090;6.350;2023-05-21T10:04:48;18.75;;;8.00;;
64609;SDS011;51019;46.090;6.350;2023-05-21T10:07:21;17.55;;;9.85;;
64609;SDS011;51019;46.090;6.350;2023-05-21T10:09:51;15.23;;;8.47;;
64609;SDS011;51019;46.090;6.350;2023-05-21T10:12:23;16.02;;;8.23;;
64609;SDS011;51019;46.090;6.350;2023-05-21T10:14:53;17.00;;;8.32;;
64609;SDS011;51019;46.090;6.350;2023-05-21T10:17:26;20.40;;;8.90;;
64609;SDS011;51019;46.090;6.350;2023-05-21T10:19:56;18.48;;;9.05;;
64609;SDS011;51019;46.090;6.350;2023-05-21T10:22:28;17.25;;;8.73;;
64609;SDS011;51019;46.090;6.350;2023-05-21T10:24:59;15.50;;;8.43;;
64609;SDS011;51019;46.090;6.350;2023-05-21T10:27:29;16.30;;;8.48;;
64609;SDS011;51019;46.090;6.350;2023-05-21T10:29:58;17.08;;;7.68;;
64609;SDS011;51019;46.090;6.350;2023-05-21T10:32:26;17.90;;;8.98;;
64609;SDS011;51019;46.090;6.350;2023-05-21T10:34:54;15.98;;;7.65;;
64609;SDS011;51019;46.090;6.350;2023-05-21T10:37:23;16.08;;;7.43;;
64609;SDS011;51019;46.090;6.350;2023-05-21T10:39:54;14.65;;;7.15;;
64609;SDS011;51019;46.090;6.350;2023-05-21T10:42:35;13.70;;;6.93;;
64609;SDS011;51019;46.090;6.350;2023-05-21T10:45:30;15.55;;;6.70;;
64609;SDS011;51019;46.090;6.350;2023-05-21T10:48:20;16.83;;;7.30;;
64609;SDS011;51019;46.090;6.350;2023-05-21T10:51:03;14.75;;;7.50;;
64609;SDS011;51019;46.090;6.350;2023-05-21T10:53:46;16.63;;;7.20;;
64609;SDS011;51019;46.090;6.350;2023-05-21T10:56:37;15.40;;;7.38;;
64609;SDS011;51019;46.090;6.350;2023-05-21T10:59:10;15.02;;;7.60;;
64609;SDS011;51019;46.090;6.350;2023-05-21T11:01:46;16.88;;;7.88;;
64609;SDS011;51019;46.090;6.350;2023-05-21T11:04:22;15.18;;;7.38;;
64609;SDS011;51019;46.090;6.350;2023-05-21T11:06:52;14.82;;;6.90;;
64609;SDS011;51019;46.090;6.350;2023-05-21T11:09:22;15.45;;;7.82;;
64609;SDS011;51019;46.090;6.350;2023-05-21T11:11:55;14.65;;;6.65;;
64609;SDS011;51019;46.090;6.350;2023-05-21T11:14:25;15.10;;;7.28;;
64609;SDS011;51019;46.090;6.350;2023-05-21T11:16:59;17.40;;;8.23;;
64609;SDS011;51019;46.090;6.350;2023-05-21T11:19:34;19.45;;;8.30;;
64609;SDS011;51019;46.090;6.350;2023-05-21T11:22:07;21.55;;;7.72;;
64609;SDS011;51019;46.090;6.350;2023-05-21T11:24:45;15.35;;;7.72;;
64609;SDS011;51019;46.090;6.350;2023-05-21T11:27:28;16.13;;;7.15;;
64609;SDS011;51019;46.090;6.350;2023-05-21T11:29:59;14.25;;;6.57;;
64609;SDS011;51019;46.090;6.350;2023-05-21T11:32:30;14.73;;;7.10;;
64609;SDS011;51019;46.090;6.350;2023-05-21T11:34:59;14.35;;;5.68;;
64609;SDS011;51019;46.090;6.350;2023-05-21T11:37:28;12.60;;;5.80;;
64609;SDS011;51019;46.090;6.350;2023-05-21T11:40:15;12.57;;;5.50;;
64609;SDS011;51019;46.090;6.350;2023-05-21T11:42:51;14.38;;;6.30;;
64609;SDS011;51019;46.090;6.350;2023-05-21T11:45:27;14.32;;;5.60;;
64609;SDS011;51019;46.090;6.350;2023-05-21T11:47:57;13.77;;;6.47;;
64609;SDS011;51019;46.090;6.350;2023-05-21T11:50:28;13.48;;;6.43;;
64609;SDS011;51019;46.090;6.350;2023-05-21T11:52:58;15.70;;;7.05;;
64609;SDS011;51019;46.090;6.350;2023-05-21T11:55:27;13.73;;;6.35;;
64609;SDS011;51019;46.090;6.350;2023-05-21T11:57:57;12.90;;;6.40;;
64609;SDS011;51019;46.090;6.350;2023-05-21T12:00:28;12.40;;;5.43;;
64609;SDS011;51019;46.090;6.350;2023-05-21T12:02:55;12.73;;;5.85;;
64609;SDS011;51019;46.090;6.350;2023-05-21T12:05:27;13.77;;;5.90;;
64609;SDS011;51019;46.090;6.350;2023-05-21T12:07:55;14.23;;;6.00;;
64609;SDS011;51019;46.090;6.350;2023-05-21T12:10:23;13.18;;;4.95;;
64609;SDS011;51019;46.090;6.350;2023-05-21T12:12:52;12.82;;;5.40;;
64609;SDS011;51019;46.090;6.350;2023-05-21T12:15:25;10.85;;;4.43;;
64609;SDS011;51019;46.090;6.350;2023-05-21T12:17:53;12.40;;;5.15;;
64609;SDS011;51019;46.090;6.350;2023-05-21T12:20:22;12.60;;;5.20;;
64609;SDS011;51019;46.090;6.350;2023-05-21T12:22:55;11.68;;;5.00;;
64609;SDS011;51019;46.090;6.350;2023-05-21T12:25:25;12.43;;;5.40;;
64609;SDS011;51019;46.090;6.350;2023-05-21T12:27:54;14.65;;;5.00;;
64609;SDS011;51019;46.090;6.350;2023-05-21T12:30:25;12.55;;;4.68;;
64609;SDS011;51019;46.090;6.350;2023-05-21T12:32:56;12.88;;;4.38;;
64609;SDS011;51019;46.090;6.350;2023-05-21T12:35:27;12.40;;;4.05;;
64609;SDS011;51019;46.090;6.350;2023-05-21T12:38:01;11.98;;;4.55;;
64609;SDS011;51019;46.090;6.350;2023-05-21T12:40:35;12.50;;;4.53;;
64609;SDS011;51019;46.090;6.350;2023-05-21T12:43:04;10.23;;;4.07;;
64609;SDS011;51019;46.090;6.350;2023-05-21T12:45:34;16.08;;;4.57;;
64609;SDS011;51019;46.090;6.350;2023-05-21T12:48:06;12.68;;;4.00;;
64609;SDS011;51019;46.090;6.350;2023-05-21T12:50:37;10.80;;;3.78;;
64609;SDS011;51019;46.090;6.350;2023-05-21T12:53:07;10.90;;;3.90;;
64609;SDS011;51019;46.090;6.350;2023-05-21T12:55:37;10.65;;;3.67;;
64609;SDS011;51019;46.090;6.350;2023-05-21T12:58:05;10.02;;;3.85;;
64609;SDS011;51019;46.090;6.350;2023-05-21T13:00:40;11.20;;;3.85;;
64609;SDS011;51019;46.090;6.350;2023-05-21T13:03:12;11.45;;;3.72;;
64609;SDS011;51019;46.090;6.350;2023-05-21T13:05:41;12.48;;;4.18;;
64609;SDS011;51019;46.090;6.350;2023-05-21T13:08:08;10.95;;;3.95;;
64609;SDS011;51019;46.090;6.350;2023-05-21T13:10:41;11.73;;;3.90;;
64609;SDS011;51019;46.090;6.350;2023-05-21T13:13:10;11.23;;;3.90;;
64609;SDS011;51019;46.090;6.350;2023-05-21T13:15:40;12.38;;;4.28;;
64609;SDS011;51019;46.090;6.350;2023-05-21T13:18:07;12.05;;;4.38;;
64609;SDS011;51019;46.090;6.350;2023-05-21T13:20:36;11.88;;;3.90;;
64609;SDS011;51019;46.090;6.350;2023-05-21T13:23:04;11.80;;;3.47;;
64609;SDS011;51019;46.090;6.350;2023-05-21T13:25:31;10.60;;;3.88;;
64609;SDS011;51019;46.090;6.350;2023-05-21T13:28:00;10.75;;;3.65;;
64609;SDS011;51019;46.090;6.350;2023-05-21T13:30:29;9.63;;;3.42;;
64609;SDS011;51019;46.090;6.350;2023-05-21T13:32:59;11.32;;;3.90;;
64609;SDS011;51019;46.090;6.350;2023-05-21T13:35:39;10.63;;;3.70;;
64609;SDS011;51019;46.090;6.350;2023-05-21T13:38:06;11.07;;;3.97;;
64609;SDS011;51019;46.090;6.350;2023-05-21T13:40:34;12.10;;;3.70;;
64609;SDS011;51019;46.090;6.350;2023-05-21T13:43:01;10.93;;;3.90;;
64609;SDS011;51019;46.090;6.350;2023-05-21T13:45:29;11.07;;;3.65;;
64609;SDS011;51019;46.090;6.350;2023-05-21T13:47:56;13.27;;;3.80;;
64609;SDS011;51019;46.090;6.350;2023-05-21T13:50:25;10.60;;;3.50;;
64609;SDS011;51019;46.090;6.350;2023-05-21T13:52:53;9.73;;;3.45;;
64609;SDS011;51019;46.090;6.350;2023-05-21T13:55:20;10.77;;;4.10;;
64609;SDS011;51019;46.090;6.350;2023-05-21T13:57:48;11.48;;;3.92;;
64609;SDS011;51019;46.090;6.350;2023-05-21T14:00:18;11.15;;;4.00;;
64609;SDS011;51019;46.090;6.350;2023-05-21T14:02:46;10.90;;;3.80;;
64609;SDS011;51019;46.090;6.350;2023-05-21T14:05:15;11.32;;;4.03;;
64609;SDS011;51019;46.090;6.350;2023-05-21T14:07:43;12.98;;;3.90;;
64609;SDS011;51019;46.090;6.350;2023-05-21T14:10:12;10.77;;;3.90;;
64609;SDS011;51019;46.090;6.350;2023-05-21T14:12:40;11.18;;;3.70;;
64609;SDS011;51019;46.090;6.350;2023-05-21T14:15:10;15.00;;;3.63;;
64609;SDS011;51019;46.090;6.350;2023-05-21T14:17:38;13.00;;;3.95;;
64609;SDS011;51019;46.090;6.350;2023-05-21T14:20:06;10.93;;;4.10;;
64609;SDS011;51019;46.090;6.350;2023-05-21T14:22:37;10.07;;;3.92;;
64609;SDS011;51019;46.090;6.350;2023-05-21T14:25:05;10.48;;;3.80;;
64609;SDS011;51019;46.090;6.350;2023-05-21T14:27:33;9.70;;;3.45;;
64609;SDS011;51019;46.090;6.350;2023-05-21T14:30:01;10.98;;;3.88;;
64609;SDS011;51019;46.090;6.350;2023-05-21T14:32:30;11.38;;;4.20;;
64609;SDS011;51019;46.090;6.350;2023-05-21T14:34:58;11.73;;;4.25;;
64609;SDS011;51019;46.090;6.350;2023-05-21T14:37:26;10.77;;;4.25;;
64609;SDS011;51019;46.090;6.350;2023-05-21T14:39:57;11.55;;;3.80;;
64609;SDS011;51019;46.090;6.350;2023-05-21T14:42:29;12.20;;;4.55;;
64609;SDS011;51019;46.090;6.350;2023-05-21T14:44:57;11.70;;;4.47;;